Terminal Aerodrome Forecast
Issued by NWS

Current Version | Previous Version | Text Only | Print | Product List | Glossary On
Versions: 1 2 3 4 5 6 7 8 9 10 11 12 13 14 15 16
000
FTPA31 PHFO 302341
TAFHOG
TAF
PHOG 302341Z 3100/3124 04018KT P6SM VCSH FEW010 SCT020 BKN040
     FM310600 05009G14KT P6SM VCSH SCT025 BKN045
     FM311900 05018G26KT P6SM VCSH SCT025 BKN045
     FM312300 05026G32KT P6SM VCSH SCT025 BKN045
      AMD LTD TO VIS AND WIND 3109/3116=

USA.gov is the U.S. government's official web portal to all federal, state and local government web resources and services.